Latest Weather Observations for Creal Reef

IDQ60801

Issued at 8:05 pm EST Tuesday 21 October 2014 (issued every 30 minutes, with the page automatically refreshed every 10 minutes)

About weather observations | Map of weather stations | Latest weather observations for QLD | Other Formats
Station Details ID: 200736 Name: CREAL REEF Lat: -20.53 Lon: 150.38 Height: 1.7 m
Data from the previous 72 hours. | See also: Recent months for locations in Queensland
Date/Time
EST
Temp
°C
App
Temp
°C
Dew
Point
Rel
Hum
%
Delta-T
°C
Wind Press
QNH
hPa
Press
MSL
hPa
Rain
since 9 am
mm
Dir
 
Spd
km/h
Gust
km/h
Spd
kts
Gust
kts
21/08:00pm 23.6 - - - - SE 43 50 23 27 1020.7 - -
21/07:30pm 23.6 - - - - SE 44 50 24 27 1020.6 - -
21/07:20pm 23.6 - - - - ESE 43 - 23 - - 1020.6 -
21/07:00pm 23.4 - - - - ESE 37 43 20 23 1020.6 - -
21/06:30pm 23.1 - - - - SE 39 46 21 25 1020.4 - -
21/06:20pm 23.5 - - - - SE 39 - 21 - - 1020.2 -
21/06:00pm 23.4 - - - - SE 37 44 20 24 1020.0 - -
21/05:30pm 23.3 - - - - SE 39 46 21 25 1019.8 - -
21/05:20pm 23.1 - - - - SE 39 - 21 - - 1019.5 -
21/05:00pm 23.4 - - - - SE 41 46 22 25 1019.4 - -
21/04:30pm 23.4 - - - - SE 41 46 22 25 1019.3 - -
21/04:20pm 23.5 - - - - SE 41 - 22 - - 1019.2 -
21/04:00pm 23.6 - - - - SE 43 50 23 27 1019.1 - -
21/03:30pm 23.7 - - - - SE 43 48 23 26 1019.2 - -
21/03:20pm 23.7 - - - - SE 43 - 23 - - 1019.1 -
21/03:00pm 23.7 - - - - SE 41 48 22 26 1019.2 - -
21/02:30pm 23.6 - - - - SE 41 46 22 25 1019.3 - -
21/02:20pm 23.8 - - - - SE 39 - 21 - - 1019.3 -
21/02:00pm 23.6 - - - - SE 37 43 20 23 1019.6 - -
21/01:30pm 23.7 - - - - SE 39 44 21 24 1019.9 - -
21/01:20pm 23.6 - - - - SE 39 - 21 - - 1019.8 -
21/01:00pm 23.8 - - - - SE 41 46 22 25 1020.1 - -
21/12:30pm 23.7 - - - - SE 44 52 24 28 1020.6 - -
21/12:20pm 23.6 - - - - SE 43 - 23 - - 1020.5 -
21/12:00pm 23.5 - - - - SE 41 48 22 26 1020.9 - -
21/11:30am 23.5 - - - - SE 43 50 23 27 1021.2 - -
21/11:20am 23.5 - - - - SE 43 - 23 - - 1021.2 -
21/11:00am 23.5 - - - - SE 43 52 23 28 1021.4 - -
21/10:30am 23.6 - - - - ESE 43 48 23 26 1021.4 - -
21/10:20am 23.6 - - - - ESE 44 - 24 - - 1021.3 -
21/10:00am 23.7 - - - - ESE 46 52 25 28 1021.4 - -
21/09:30am 23.9 - - - - ESE 41 46 22 25 1021.4 - -
21/09:20am 23.8 - - - - ESE 41 - 22 - - 1021.4 -
21/09:00am 24.0 - - - - ESE 41 48 22 26 1021.6 - -
21/08:30am 23.7 - - - - ESE 41 48 22 26 1021.4 - -
21/08:20am 23.6 - - - - ESE 41 - 22 - - 1021.2 -
21/08:00am 23.0 - - - - ESE 26 39 14 21 1021.1 - -
21/07:50am 22.5 - - - - ESE 30 48 16 26 1021.1 - -
21/07:36am 22.1 - - - - E 30 46 16 25 1021.0 - -
21/07:30am 23.3 - - - - SE 37 43 20 23 1020.8 - -
21/07:20am 23.1 - - - - SE 44 - 24 - - 1020.6 -
21/07:00am 22.3 - - - - SE 37 44 20 24 1020.5 - -
21/06:30am 23.2 - - - - SE 37 43 20 23 1020.1 - -
21/06:20am 23.2 - - - - SE 39 - 21 - - 1019.9 -
21/06:00am 23.2 - - - - SE 37 43 20 23 1019.7 - -
21/05:30am 23.3 - - - - ESE 39 44 21 24 1019.6 - -
21/05:20am 23.3 - - - - SE 39 - 21 - - 1019.4 -
21/05:00am 23.3 - - - - ESE 33 39 18 21 1019.2 - -
21/04:30am 23.2 - - - - ESE 32 37 17 20 1019.1 - -
21/04:20am 23.4 - - - - ESE 33 - 18 - - 1018.9 -
21/04:00am 23.1 - - - - SE 39 48 21 26 1018.8 - -
21/03:30am 23.1 - - - - ESE 39 46 21 25 1018.7 - -
21/03:20am 23.1 - - - - ESE 41 - 22 - - 1018.5 -
21/03:00am 23.1 - - - - ESE 39 48 21 26 1018.6 - -
21/02:30am 23.1 - - - - ESE 41 52 22 28 1018.6 - -
21/02:20am 23.1 - - - - SE 39 - 21 - - 1018.4 -
21/02:00am 23.2 - - - - ESE 43 50 23 27 1018.7 - -
21/01:30am 23.2 - - - - ESE 41 50 22 27 1018.9 - -
21/01:20am 23.3 - - - - ESE 44 - 24 - - 1019.0 -
21/01:00am 23.3 - - - - ESE 41 48 22 26 1019.3 - -
21/12:30am 23.4 - - - - ESE 43 50 23 27 1019.8 - -
21/12:20am 23.4 - - - - SE 39 - 21 - - 1019.9 -
21/12:00am 23.5 - - - - ESE 43 50 23 27 1020.3 - -
 
Date/Time
EST
Temp
°C
App
Temp
°C
Dew
Point
Rel
Hum
%
Delta-T
°C
Wind Press
QNH
hPa
Press
MSL
hPa
Rain
since 9 am
mm
Dir
 
Spd
km/h
Gust
km/h
Spd
kts
Gust
kts
20/11:30pm 23.5 - - - - ESE 39 46 21 25 1020.9 - -
20/11:20pm 23.5 - - - - ESE 39 - 21 - - 1021.0 -
20/11:00pm 23.5 - - - - ESE 35 41 19 22 1021.3 - -
20/10:30pm 23.6 - - - - ESE 39 44 21 24 1021.5 - -
20/10:20pm 23.7 - - - - SE 37 - 20 - - 1021.4 -
20/10:00pm 23.5 - - - - ESE 39 46 21 25 1021.4 - -
20/09:30pm 23.5 - - - - ESE 39 46 21 25 1021.4 - -
20/09:20pm 23.5 - - - - ESE 37 - 20 - - 1021.3 -
20/09:00pm 23.6 - - - - ESE 37 44 20 24 1021.2 - -
20/08:30pm 23.7 - - - - ESE 35 41 19 22 1020.9 - -
20/08:20pm 23.4 - - - - ESE 39 - 21 - - 1020.7 -
20/08:00pm 23.6 - - - - ESE 44 50 24 27 1020.6 - -
20/07:30pm 23.4 - - - - ESE 41 48 22 26 1020.3 - -
20/07:20pm 23.5 - - - - ESE 37 - 20 - - 1020.2 -
20/07:00pm 23.4 - - - - ESE 37 44 20 24 1020.0 - -
20/06:30pm 23.5 - - - - ESE 39 44 21 24 1019.6 - -
20/06:20pm 23.6 - - - - ESE 39 - 21 - - 1019.3 -
20/06:00pm 23.6 - - - - SE 33 39 18 21 1019.2 - -
20/05:30pm 23.7 - - - - SE 35 41 19 22 1018.7 - -
20/05:20pm 23.6 - - - - SE 35 - 19 - - 1018.5 -
20/05:00pm 23.5 - - - - ESE 37 41 20 22 1018.2 - -
20/04:30pm 23.4 - - - - ESE 37 44 20 24 1017.8 - -
20/04:20pm 23.5 - - - - ESE 37 - 20 - - 1017.5 -
20/04:00pm 23.5 - - - - SE 37 44 20 24 1017.6 - -
20/03:30pm 23.7 - - - - SE 41 48 22 26 1017.5 - -
20/03:20pm 23.7 - - - - SE 41 - 22 - - 1017.5 -
20/03:00pm 23.8 - - - - ESE 41 46 22 25 1017.6 - -
20/02:30pm 23.7 - - - - SE 41 48 22 26 1018.0 - -
20/02:20pm 23.7 - - - - SE 39 - 21 - - 1018.2 -
20/02:00pm 23.8 - - - - ESE 39 44 21 24 1018.6 - -
20/01:30pm 23.9 - - - - SE 39 44 21 24 1018.9 - -
20/01:20pm 23.7 - - - - SE 39 - 21 - - 1018.9 -
20/01:00pm 23.7 - - - - ESE 37 43 20 23 1019.2 - -
20/12:30pm 23.7 - - - - ESE 39 46 21 25 1019.7 - -
20/12:20pm 23.8 - - - - SE 37 - 20 - - 1019.8 -
20/12:00pm 23.6 - - - - SE 37 43 20 23 1020.4 - -
20/11:30am 23.5 - - - - SE 32 37 17 20 1020.7 - -
20/11:20am 23.6 - - - - SE 32 - 17 - - 1020.6 -
20/11:00am 23.4 - - - - SE 30 33 16 18 1020.8 - -
20/10:30am 23.4 - - - - SE 32 39 17 21 1021.1 - -
20/10:20am 23.5 - - - - ESE 32 - 17 - - 1021.1 -
20/10:00am 23.5 - - - - SE 32 37 17 20 1021.4 - -
20/09:30am 23.8 - - - - SE 35 39 19 21 1021.5 - -
20/09:20am 23.7 - - - - ESE 33 - 18 - - 1021.4 -
20/09:00am 23.9 - - - - SE 37 43 20 23 1021.6 - -
20/08:30am 23.6 - - - - ESE 33 43 18 23 1021.7 - -
20/08:20am 23.6 - - - - ESE 39 - 21 - - 1021.5 -
20/08:00am 23.4 - - - - SE 43 48 23 26 1021.5 - -
20/07:30am 23.8 - - - - SE 43 52 23 28 1021.2 - -
20/07:20am 23.8 - - - - ESE 41 - 22 - - 1021.0 -
20/07:00am 23.6 - - - - SE 39 46 21 25 1021.0 - -
20/06:30am 23.5 - - - - SE 41 46 22 25 1020.8 - -
20/06:20am 23.4 - - - - SE 39 - 21 - - 1020.7 -
20/06:00am 23.3 - - - - SE 37 44 20 24 1020.5 - -
20/05:30am 23.3 - - - - SE 37 43 20 23 1020.1 - -
20/05:20am 23.3 - - - - SE 35 - 19 - - 1019.9 -
20/05:00am 23.3 - - - - SE 37 43 20 23 1019.7 - -
20/04:30am 22.9 - - - - SE 39 44 21 24 1019.5 - -
20/04:20am 22.7 - - - - SE 39 - 21 - - 1019.4 -
20/04:00am 22.7 - - - - SE 39 46 21 25 1019.3 - -
20/03:30am 23.1 - - - - SE 43 48 23 26 1019.2 - -
20/03:20am 23.1 - - - - SE 43 - 23 - - 1019.1 -
20/03:00am 23.1 - - - - SE 43 50 23 27 1019.2 - -
20/02:30am 23.1 - - - - ESE 46 52 25 28 1019.1 - -
20/02:20am 23.1 - - - - ESE 44 - 24 - - 1019.1 -
20/02:00am 23.1 - - - - ESE 43 52 23 28 1019.2 - -
20/01:30am 22.9 - - - - SE 41 50 22 27 1019.6 - -
20/01:20am 22.7 - - - - SE 44 - 24 - - 1019.7 -
20/01:00am 23.1 - - - - SE 35 43 19 23 1020.0 - -
20/12:30am 22.9 - - - - SE 39 46 21 25 1020.5 - -
20/12:20am 22.7 - - - - SE 37 - 20 - - 1020.5 -
20/12:00am 22.9 - - - - SE 43 46 23 25 1020.9 - -
 
Date/Time
EST
Temp
°C
App
Temp
°C
Dew
Point
Rel
Hum
%
Delta-T
°C
Wind Press
QNH
hPa
Press
MSL
hPa
Rain
since 9 am
mm
Dir
 
Spd
km/h
Gust
km/h
Spd
kts
Gust
kts
19/11:30pm 23.0 - - - - SE 44 50 24 27 1021.2 - -
19/11:20pm 23.0 - - - - SE 43 - 23 - - 1021.2 -
19/11:00pm 23.3 - - - - SE 39 46 21 25 1021.6 - -
19/10:30pm 23.1 - - - - SE 44 52 24 28 1021.8 - -
19/10:20pm 23.2 - - - - SE 43 - 23 - - 1021.8 -
19/10:00pm 23.1 - - - - SE 44 54 24 29 1021.9 - -
19/09:30pm 23.2 - - - - SE 46 54 25 29 1021.9 - -
19/09:20pm 23.2 - - - - SE 44 - 24 - - 1021.8 -
19/09:00pm 23.3 - - - - SE 48 57 26 31 1021.7 - -
19/08:30pm 23.2 - - - - SE 46 56 25 30 1021.4 - -
19/08:20pm 23.2 - - - - SE 46 - 25 - - 1021.2 -
19/08:00pm 23.2 - - - - SE 48 56 26 30 1021.2 - -
19/07:30pm 23.3 - - - - ESE 50 59 27 32 1020.9 - -
19/07:20pm 23.3 - - - - SE 50 - 27 - - 1020.7 -
19/07:00pm 23.3 - - - - SE 50 57 27 31 1020.7 - -
19/06:30pm 23.5 - - - - SE 48 57 26 31 1020.5 - -
19/06:20pm 23.4 - - - - SE 48 - 26 - - 1020.3 -
19/06:00pm 23.4 - - - - ESE 46 52 25 28 1020.3 - -
19/05:30pm 23.3 - - - - SE 44 52 24 28 1020.2 - -
19/05:20pm 23.4 - - - - SE 44 - 24 - - 1020.0 -
19/05:00pm 23.4 - - - - SE 44 56 24 30 1019.9 - -
19/04:30pm 23.5 - - - - SE 46 54 25 29 1019.6 - -
19/04:20pm 23.5 - - - - SE 46 - 25 - - 1019.5 -
19/04:00pm 23.4 - - - - SE 46 54 25 29 1019.4 - -
19/03:30pm 23.3 - - - - SE 46 56 25 30 1019.2 - -
19/03:20pm 23.3 - - - - SE 46 - 25 - - 1019.1 -
19/03:00pm 23.6 - - - - SE 44 52 24 28 1019.2 - -
19/02:30pm 23.5 - - - - SE 46 52 25 28 1019.3 - -
19/02:20pm 23.6 - - - - SE 48 - 26 - - 1019.2 -
19/02:00pm 23.5 - - - - SE 48 59 26 32 1019.4 - -
19/01:30pm 23.5 - - - - SE 48 57 26 31 1019.7 - -
19/01:20pm 23.6 - - - - SE 48 - 26 - - 1019.7 -
19/01:00pm 23.5 - - - - SE 50 57 27 31 1020.0 - -
19/12:30pm 23.6 - - - - SE 50 56 27 30 1020.2 - -
19/12:20pm 23.5 - - - - SE 50 - 27 - - 1020.2 -
19/12:00pm 23.4 - - - - SE 46 56 25 30 1020.5 - -
19/11:30am 23.6 - - - - SE 48 56 26 30 1020.9 - -
19/11:20am 23.5 - - - - SE 48 - 26 - - 1020.8 -
19/11:00am 23.4 - - - - SE 44 54 24 29 1021.1 - -
19/10:30am 23.6 - - - - SE 46 52 25 28 1021.3 - -
19/10:20am 23.7 - - - - SE 44 - 24 - - 1021.3 -
19/10:00am 23.7 - - - - SE 44 52 24 28 1021.6 - -
19/09:30am 23.4 - - - - SE 48 57 26 31 1021.6 - -
19/09:20am 23.7 - - - - SE 46 - 25 - - 1021.6 -
19/09:00am 23.4 - - - - SE 46 56 25 30 1021.8 - -
19/08:30am 23.1 - - - - SE 43 52 23 28 1021.9 - -
19/08:20am 23.1 - - - - SE 43 - 23 - - 1021.7 -
19/08:00am 22.1 - - - - SE 52 65 28 35 1021.8 - -
19/07:30am 22.9 - - - - SE 44 52 24 28 1021.5 - -
19/07:20am 23.0 - - - - SE 46 - 25 - - 1021.4 -
19/07:00am 23.3 - - - - SE 44 52 24 28 1021.2 - -
19/06:30am 23.2 - - - - SE 46 54 25 29 1020.8 - -
19/06:20am 23.2 - - - - SE 46 - 25 - - 1020.6 -
19/06:00am 23.1 - - - - SE 46 54 25 29 1020.5 - -
19/05:30am 23.1 - - - - SE 41 46 22 25 1020.2 - -
19/05:20am 23.1 - - - - SE 43 - 23 - - 1020.0 -
19/05:00am 23.2 - - - - SE 39 48 21 26 1020.0 - -
19/04:30am 23.0 - - - - SE 41 46 22 25 1019.8 - -
19/04:20am 23.1 - - - - SE 41 - 22 - - 1019.6 -
19/04:00am 23.0 - - - - SE 44 50 24 27 1019.6 - -
19/03:30am 23.2 - - - - ESE 43 50 23 27 1019.4 - -
19/03:20am 23.2 - - - - ESE 41 - 22 - - 1019.4 -
19/03:00am 23.3 - - - - SE 41 46 22 25 1019.5 - -
19/02:30am 23.1 - - - - SE 44 52 24 28 1019.3 - -
19/02:20am 22.9 - - - - ESE 44 - 24 - - 1019.2 -
19/02:00am 23.1 - - - - SE 44 54 24 29 1019.3 - -
19/01:30am 23.1 - - - - SE 44 52 24 28 1019.8 - -
19/01:20am 23.1 - - - - SE 44 - 24 - - 1019.9 -
19/01:00am 23.3 - - - - SE 46 56 25 30 1020.0 - -
19/12:30am 23.3 - - - - SE 46 54 25 29 1020.4 - -
19/12:20am 23.2 - - - - SE 46 - 25 - - 1020.5 -
19/12:00am 23.4 - - - - SE 46 56 25 30 1020.7 - -
 
Date/Time
EST
Temp
°C
App
Temp
°C
Dew
Point
Rel
Hum
%
Delta-T
°C
Wind Press
QNH
hPa
Press
MSL
hPa
Rain
since 9 am
mm
Dir
 
Spd
km/h
Gust
km/h
Spd
kts
Gust
kts
18/11:30pm 23.5 - - - - SE 46 54 25 29 1021.0 - -
18/11:20pm 23.6 - - - - ESE 48 - 26 - - 1020.9 -
18/11:00pm 23.5 - - - - ESE 48 59 26 32 1021.2 - -
18/10:30pm 23.4 - - - - SE 46 54 25 29 1021.5 - -
18/10:20pm 23.6 - - - - SE 46 - 25 - - 1021.4 -
18/10:00pm 23.6 - - - - SE 46 56 25 30 1021.5 - -
18/09:30pm 23.7 - - - - SE 46 54 25 29 1021.6 - -
18/09:20pm 23.6 - - - - SE 48 - 26 - - 1021.5 -
18/09:00pm 23.6 - - - - SE 48 57 26 31 1021.4 - -
18/08:30pm 23.6 - - - - SE 50 57 27 31 1021.3 - -
18/08:20pm 23.7 - - - - SE 48 - 26 - - 1021.1 -

Other Formats:

Comma delimited format used in spreadsheet applications
http://www.bom.gov.au/fwo/IDQ60801/IDQ60801.94371.axf

JavaScript Object Notation format (JSON) in row-major order
http://www.bom.gov.au/fwo/IDQ60801/IDQ60801.94371.json